Time;durP1;ratioP1;P1;durP2;ratioP2;P2;SDS_P1;SDS_P2;PMS_P1;PMS_P2;Temp;Humidity;BMP_temperature;BMP_pressure;BME280_temperature;BME280_humidity;BME280_pressure;Samples;Min_cycle;Max_cycle;Signal;HPM_P1;HPM_P2
2023/01/05 00:01:47;;;;;;;14.20;3.22;;;12.40;86.70;;;;;;5134356;28;20039;-77
2023/01/05 00:04:13;;;;;;;15.30;2.20;;;12.40;86.70;;;;;;5134367;28;20024;-77
2023/01/05 00:06:40;;;;;;;16.42;2.53;;;12.40;86.80;;;;;;5134254;28;20520;-77
2023/01/05 00:09:07;;;;;;;11.07;2.80;;;12.40;86.80;;;;;;5135199;28;20022;-77
2023/01/05 00:22:45;;;;;;;14.43;2.75;;;12.40;86.70;;;;;;5135106;28;20057;-77
2023/01/05 00:25:31;;;;;;;14.68;2.15;;;12.30;86.50;;;;;;5134979;28;20562;-77
2023/01/05 00:27:57;;;;;;;16.70;2.95;;;12.30;86.40;;;;;;5134618;28;20044;-77
2023/01/05 00:30:26;;;;;;;13.02;2.35;;;12.30;86.50;;;;;;5134855;28;20028;-77
2023/01/05 00:32:52;;;;;;;9.60;2.45;;;12.30;86.50;;;;;;5134064;28;20083;-78
2023/01/05 00:35:18;;;;;;;14.02;2.72;;;12.30;86.60;;;;;;5133698;28;20074;-77
2023/01/05 00:37:44;;;;;;;14.65;2.65;;;12.30;86.70;;;;;;5133663;28;20031;-77
2023/01/05 00:40:14;;;;;;;9.48;1.95;;;12.30;86.70;;;;;;5133622;28;20085;-77
2023/01/05 00:42:39;;;;;;;16.90;2.05;;;12.30;86.50;;;;;;5133579;28;20041;-78
2023/01/05 00:45:07;;;;;;;15.38;2.88;;;12.30;86.60;;;;;;5134586;28;20500;-77
2023/01/05 00:47:33;;;;;;;13.10;2.45;;;12.30;86.90;;;;;;5133526;28;20024;-77
2023/01/05 00:49:59;;;;;;;17.25;3.13;;;12.30;86.70;;;;;;5133560;28;20023;-78
2023/01/05 00:52:24;;;;;;;11.57;2.35;;;12.30;86.20;;;;;;5134420;28;20028;-77
2023/01/05 00:54:50;;;;;;;12.07;2.83;;;12.30;86.20;;;;;;5133543;28;20086;-77
2023/01/05 00:57:15;;;;;;;13.38;2.25;;;12.30;86.50;;;;;;5134333;28;20028;-77
2023/01/05 00:59:41;;;;;;;15.18;2.22;;;12.30;86.50;;;;;;5134301;28;20071;-77
2023/01/05 01:02:08;;;;;;;11.98;2.58;;;12.30;86.50;;;;;;5133189;28;20024;-77
2023/01/05 01:04:34;;;;;;;14.50;2.55;;;12.20;86.50;;;;;;5133345;28;20035;-77
2023/01/05 01:07:01;;;;;;;11.18;2.35;;;12.20;86.50;;;;;;5133200;28;20406;-77
2023/01/05 01:09:26;;;;;;;11.40;2.10;;;12.20;86.60;;;;;;5134130;28;20019;-77
2023/01/05 01:11:52;;;;;;;9.60;2.35;;;12.10;86.80;;;;;;5134303;28;20069;-77
2023/01/05 01:14:18;;;;;;;24.70;3.03;;;12.10;86.90;;;;;;5134121;28;20028;-78
2023/01/05 01:16:44;;;;;;;12.70;2.10;;;12.10;87.00;;;;;;5133083;28;20023;-77
2023/01/05 01:19:15;;;;;;;15.63;2.47;;;12.00;86.90;;;;;;5133086;28;20118;-77
2023/01/05 01:21:41;;;;;;;16.33;2.97;;;12.10;87.10;;;;;;5134136;28;20052;-77
2023/01/05 01:24:07;;;;;;;23.08;2.85;;;12.00;87.00;;;;;;5134019;28;20042;-77
2023/01/05 01:26:32;;;;;;;10.60;1.83;;;12.00;86.90;;;;;;5133816;28;20043;-77
2023/01/05 01:28:58;;;;;;;20.77;3.55;;;12.00;87.20;;;;;;5134096;28;20498;-77
2023/01/05 01:31:23;;;;;;;11.10;2.65;;;12.00;87.20;;;;;;5137853;28;20039;-77
2023/01/05 01:33:49;;;;;;;8.52;2.00;;;12.00;87.40;;;;;;5140894;28;20028;-77
2023/01/05 01:36:15;;;;;;;16.80;2.13;;;11.90;87.40;;;;;;5139832;28;20045;-77
2023/01/05 01:38:41;;;;;;;13.48;2.67;;;12.00;87.50;;;;;;5140777;27;20417;-77
2023/01/05 01:41:06;;;;;;;17.02;2.58;;;11.90;87.40;;;;;;5139730;28;20027;-77
2023/01/05 01:43:49;;;;;;;12.85;2.00;;;11.90;87.50;;;;;;5139727;28;20125;-77
2023/01/05 01:46:16;;;;;;;15.73;3.30;;;11.90;87.40;;;;;;5140825;28;20023;-77
2023/01/05 01:48:53;;;;;;;13.30;2.70;;;11.90;87.50;;;;;;5140627;27;20012;-77
2023/01/05 01:51:43;;;;;;;15.68;2.95;;;11.80;87.70;;;;;;5139682;28;20034;-77
2023/01/05 01:54:12;;;;;;;16.15;3.03;;;11.80;87.80;;;;;;5140735;27;20075;-78
2023/01/05 01:56:48;;;;;;;16.95;2.75;;;11.80;87.90;;;;;;5139554;28;20042;-77
2023/01/05 01:59:16;;;;;;;15.25;2.55;;;11.80;87.90;;;;;;5140725;27;20020;-77
2023/01/05 02:01:41;;;;;;;14.43;2.30;;;11.80;88.00;;;;;;5140474;27;20121;-77
2023/01/05 02:04:09;;;;;;;17.67;3.35;;;11.80;88.10;;;;;;5122438;28;20032;-77
2023/01/05 02:06:35;;;;;;;12.20;2.30;;;11.80;88.20;;;;;;5139456;28;20031;-77
2023/01/05 02:09:02;;;;;;;13.30;2.35;;;11.80;88.30;;;;;;5122486;28;20031;-77
2023/01/05 02:12:01;;;;;;;12.05;2.40;;;11.80;88.30;;;;;;5139501;28;20024;-77
2023/01/05 02:14:57;;;;;;;12.85;2.40;;;11.80;88.30;;;;;;5140421;28;20028;-77
2023/01/05 02:17:35;;;;;;;14.65;3.45;;;11.80;88.50;;;;;;5111009;27;20032;-77
2023/01/05 02:20:31;;;;;;;18.15;2.58;;;11.70;88.60;;;;;;5139307;28;20053;-77
2023/01/05 02:23:02;;;;;;;18.50;3.10;;;11.70;88.50;;;;;;5139360;28;20020;-77
2023/01/05 02:25:28;;;;;;;14.82;2.80;;;11.70;88.60;;;;;;5140468;28;20031;-77
2023/01/05 02:28:19;;;;;;;13.75;2.22;;;11.70;88.80;;;;;;5139048;28;20039;-77
2023/01/05 02:31:26;;;;;;;14.05;2.20;;;11.70;88.90;;;;;;5139320;28;20035;-77
2023/01/05 02:33:56;;;;;;;10.15;1.80;;;11.70;89.90;;;;;;5140305;27;20047;-77
2023/01/05 02:36:53;;;;;;;17.58;2.63;;;11.70;89.00;;;;;;5140294;28;20106;-77
2023/01/05 02:39:42;;;;;;;15.25;2.53;;;11.70;89.10;;;;;;5123986;27;20035;-77
2023/01/05 02:42:16;;;;;;;13.27;2.70;;;11.70;89.10;;;;;;5137478;27;20034;-77
2023/01/05 02:44:41;;;;;;;15.60;2.80;;;11.70;89.20;;;;;;5137120;28;20041;-77
2023/01/05 02:47:28;;;;;;;18.58;2.90;;;11.70;89.20;;;;;;5118975;28;20032;-77
2023/01/05 02:50:01;;;;;;;21.15;2.58;;;11.70;89.00;;;;;;5135825;28;20019;-77
2023/01/05 02:52:33;;;;;;;13.13;2.38;;;11.70;89.40;;;;;;5136818;27;20036;-77
2023/01/05 02:55:04;;;;;;;15.82;2.47;;;11.70;89.40;;;;;;5135761;28;20016;-76
2023/01/05 02:57:49;;;;;;;13.27;2.28;;;11.70;89.50;;;;;;5136761;27;20035;-77
2023/01/05 03:00:41;;;;;;;14.30;2.28;;;11.70;89.40;;;;;;5136724;28;20027;-77
2023/01/05 03:03:25;;;;;;;14.43;2.73;;;11.70;89.60;;;;;;5135683;28;20119;-77
2023/01/05 03:06:03;;;;;;;17.05;2.95;;;11.70;89.40;;;;;;5136553;28;20020;-77
2023/01/05 03:08:30;;;;;;;17.10;2.08;;;11.70;89.50;;;;;;5135444;28;20019;-77
2023/01/05 03:14:05;;;;;;;14.95;2.75;;;11.70;89.60;;;;;;5136565;28;20031;-77
2023/01/05 03:16:35;;;;;;;13.55;2.63;;;11.80;89.60;;;;;;5135314;28;20016;-77
2023/01/05 03:35:46;;;;;;;13.13;2.65;;;11.90;89.30;;;;;;5136112;28;20027;-77
2023/01/05 03:38:32;;;;;;;17.33;3.00;;;12.00;89.00;;;;;;5135861;28;20024;-77
2023/01/05 03:41:01;;;;;;;15.70;2.08;;;12.00;89.10;;;;;;5135906;28;20034;-76
2023/01/05 03:43:27;;;;;;;13.30;2.40;;;11.90;88.90;;;;;;5134803;28;20039;-80
2023/01/05 03:45:55;;;;;;;15.57;1.98;;;11.90;88.90;;;;;;5135686;28;20023;-79
2023/01/05 03:48:23;;;;;;;15.55;2.47;;;11.90;89.10;;;;;;5134678;28;20016;-79
2023/01/05 03:50:49;;;;;;;16.48;4.18;;;11.90;89.00;;;;;;5135664;28;20024;-80
2023/01/05 03:53:14;;;;;;;20.55;2.90;;;12.00;88.80;;;;;;5134276;28;20032;-79
2023/01/05 03:55:40;;;;;;;16.75;2.75;;;12.00;88.60;;;;;;5117542;28;20069;-79
2023/01/05 03:58:06;;;;;;;18.58;2.92;;;12.00;88.60;;;;;;5135482;28;20031;-79
2023/01/05 04:00:31;;;;;;;10.55;2.65;;;12.00;88.50;;;;;;5135463;28;20035;-79
2023/01/05 04:02:57;;;;;;;11.52;2.03;;;12.10;88.50;;;;;;5135348;28;20047;-79
2023/01/05 04:05:23;;;;;;;18.35;3.22;;;12.10;88.40;;;;;;5135333;28;20023;-80
2023/01/05 04:07:49;;;;;;;17.40;3.00;;;12.10;88.40;;;;;;5134418;28;20031;-80
2023/01/05 04:10:15;;;;;;;16.13;3.10;;;12.10;88.50;;;;;;5134427;28;20110;-78
2023/01/05 04:12:40;;;;;;;14.10;2.42;;;12.10;88.30;;;;;;5135237;28;20087;-80
2023/01/05 04:15:07;;;;;;;20.98;3.53;;;12.10;88.30;;;;;;5134208;28;20050;-81
2023/01/05 04:17:32;;;;;;;12.05;2.13;;;12.10;88.30;;;;;;5134178;28;20479;-78
2023/01/05 04:19:59;;;;;;;11.40;2.58;;;12.10;88.20;;;;;;5134963;28;20046;-79
2023/01/05 04:22:24;;;;;;;18.17;2.90;;;12.10;88.20;;;;;;5134992;28;20028;-79
2023/01/05 04:24:50;;;;;;;14.27;2.42;;;12.10;88.00;;;;;;5134987;28;20058;-80
2023/01/05 04:27:16;;;;;;;14.02;2.28;;;12.10;88.10;;;;;;5133773;28;20043;-81
2023/01/05 04:29:41;;;;;;;15.50;2.10;;;12.10;88.10;;;;;;5133789;28;20032;-79
2023/01/05 04:32:07;;;;;;;13.40;3.15;;;12.10;88.20;;;;;;5134803;28;20036;-81
2023/01/05 04:34:32;;;;;;;16.23;3.88;;;12.10;88.10;;;;;;5134035;28;20024;-79
2023/01/05 04:36:58;;;;;;;11.75;2.50;;;12.10;88.30;;;;;;5116589;28;20118;-80
2023/01/05 04:39:24;;;;;;;13.25;2.65;;;12.10;88.20;;;;;;5134695;28;20031;-79
2023/01/05 04:41:49;;;;;;;19.63;2.67;;;12.10;88.40;;;;;;5133511;28;20036;-80
2023/01/05 04:44:15;;;;;;;13.70;2.40;;;12.10;88.40;;;;;;5133872;28;20028;-80
2023/01/05 04:46:41;;;;;;;10.80;2.00;;;12.10;88.40;;;;;;5134556;28;20075;-78
2023/01/05 04:49:09;;;;;;;13.75;2.28;;;12.10;88.40;;;;;;5134508;28;20019;-79
2023/01/05 04:51:34;;;;;;;9.68;2.00;;;12.10;88.40;;;;;;5133486;28;20028;-80
2023/01/05 04:54:00;;;;;;;9.35;1.85;;;12.10;88.50;;;;;;5134412;28;20057;-77
2023/01/05 04:56:25;;;;;;;14.23;2.65;;;12.10;88.40;;;;;;5133516;28;20031;-77
2023/01/05 04:58:51;;;;;;;11.13;2.03;;;12.10;88.50;;;;;;5133497;28;20109;-77
2023/01/05 05:01:17;;;;;;;13.57;2.25;;;12.10;88.40;;;;;;5133186;28;20038;-77
2023/01/05 05:03:42;;;;;;;9.45;1.90;;;12.10;88.60;;;;;;5133327;28;20023;-77
2023/01/05 05:06:08;;;;;;;14.02;2.08;;;12.10;88.70;;;;;;5132858;28;20028;-77
2023/01/05 05:08:33;;;;;;;14.95;3.17;;;12.10;88.40;;;;;;5134219;28;20023;-77
2023/01/05 05:10:59;;;;;;;12.77;1.90;;;12.10;88.40;;;;;;5134340;28;20035;-77
2023/01/05 05:13:25;;;;;;;21.00;2.70;;;12.10;88.30;;;;;;5134178;28;20028;-77
2023/01/05 05:15:51;;;;;;;15.07;2.78;;;12.10;88.30;;;;;;5133132;28;20028;-77
2023/01/05 05:18:16;;;;;;;15.95;3.58;;;12.10;88.60;;;;;;5134065;28;20031;-77
2023/01/05 05:20:44;;;;;;;17.50;2.72;;;12.20;88.50;;;;;;5133996;28;20027;-77
2023/01/05 05:23:10;;;;;;;16.70;3.33;;;12.20;88.50;;;;;;5134006;28;20019;-77
2023/01/05 05:25:35;;;;;;;16.77;2.75;;;12.20;88.60;;;;;;5133252;28;20030;-77
2023/01/05 05:28:01;;;;;;;15.23;2.33;;;12.10;88.50;;;;;;5132880;28;20059;-77
2023/01/05 05:30:27;;;;;;;15.18;2.67;;;12.20;88.30;;;;;;5134068;28;20073;-77
2023/01/05 05:32:52;;;;;;;10.20;2.50;;;12.10;88.40;;;;;;5132996;28;20095;-77
2023/01/05 05:35:18;;;;;;;17.42;2.80;;;12.10;88.70;;;;;;5132983;28;20059;-77
2023/01/05 05:37:44;;;;;;;13.02;2.35;;;12.10;88.70;;;;;;5133882;28;20043;-77
2023/01/05 05:40:10;;;;;;;18.15;2.85;;;12.10;88.70;;;;;;5132857;28;20073;-77
2023/01/05 05:42:36;;;;;;;10.48;3.22;;;12.10;88.60;;;;;;5134019;28;20028;-77
2023/01/05 05:45:01;;;;;;;11.00;2.10;;;12.20;88.50;;;;;;5115857;28;20047;-77
2023/01/05 05:47:27;;;;;;;14.65;2.50;;;12.20;88.40;;;;;;5115842;28;20023;-77
2023/01/05 05:49:53;;;;;;;18.38;2.88;;;12.10;88.60;;;;;;5132860;28;20032;-77
2023/01/05 05:52:18;;;;;;;15.05;2.88;;;12.10;88.70;;;;;;5132993;28;20032;-77
2023/01/05 05:54:44;;;;;;;14.27;2.70;;;12.10;88.90;;;;;;5133702;28;20027;-77
2023/01/05 05:57:10;;;;;;;14.25;2.22;;;12.10;88.90;;;;;;5133820;28;20028;-77
2023/01/05 05:59:35;;;;;;;12.20;1.92;;;12.10;88.90;;;;;;5133741;28;20032;-77
2023/01/05 06:02:01;;;;;;;16.30;2.28;;;12.10;88.90;;;;;;5132849;28;20054;-77
2023/01/05 06:04:26;;;;;;;13.00;2.42;;;12.10;89.10;;;;;;5133658;28;20041;-77
2023/01/05 06:06:52;;;;;;;20.52;2.25;;;12.10;89.20;;;;;;5133741;28;20024;-77
2023/01/05 06:09:18;;;;;;;19.15;3.55;;;12.10;90.00;;;;;;5133468;28;20028;-77
2023/01/05 06:11:43;;;;;;;14.50;2.47;;;12.10;89.10;;;;;;5133683;28;20034;-77
2023/01/05 06:14:09;;;;;;;16.92;2.63;;;12.10;89.40;;;;;;5133577;28;20031;-77
2023/01/05 06:16:34;;;;;;;19.30;2.78;;;12.10;89.60;;;;;;5133733;28;20028;-77
2023/01/05 06:19:00;;;;;;;17.40;2.42;;;12.10;89.80;;;;;;5136500;28;20087;-77
2023/01/05 06:21:26;;;;;;;11.35;3.05;;;12.10;89.60;;;;;;5119159;28;20057;-77
2023/01/05 06:23:51;;;;;;;18.13;3.15;;;12.10;89.60;;;;;;5136369;28;20030;-77
2023/01/05 06:26:17;;;;;;;15.88;2.50;;;12.10;89.60;;;;;;5136313;28;20034;-77
2023/01/05 06:28:43;;;;;;;21.55;3.10;;;12.10;89.40;;;;;;5136408;28;20038;-77
2023/01/05 06:31:08;;;;;;;14.55;2.67;;;12.10;90.10;;;;;;5119269;28;20028;-77
2023/01/05 06:33:34;;;;;;;11.27;2.67;;;12.10;89.30;;;;;;5137153;28;20027;-77
2023/01/05 06:35:59;;;;;;;12.90;2.10;;;12.10;89.30;;;;;;5137273;28;20529;-77
2023/01/05 06:38:26;;;;;;;13.18;2.30;;;12.10;89.50;;;;;;5137095;28;20020;-77
2023/01/05 06:40:53;;;;;;;13.82;2.75;;;12.10;89.40;;;;;;5136963;28;20023;-77
2023/01/05 06:43:19;;;;;;;15.55;2.95;;;12.10;89.40;;;;;;5135975;28;20028;-77
2023/01/05 06:45:44;;;;;;;14.73;2.53;;;12.10;89.60;;;;;;5118811;28;20059;-77
2023/01/05 06:48:10;;;;;;;13.50;3.25;;;12.10;90.00;;;;;;5135978;28;20039;-77
2023/01/05 06:50:36;;;;;;;15.85;2.60;;;12.10;90.20;;;;;;5136710;28;20039;-77
2023/01/05 06:53:01;;;;;;;13.32;2.40;;;12.10;90.50;;;;;;5135828;28;20050;-77
2023/01/05 06:55:27;;;;;;;15.25;3.05;;;12.00;90.50;;;;;;5136775;28;20016;-77
2023/01/05 06:57:53;;;;;;;13.10;3.03;;;12.00;90.70;;;;;;5118761;28;20024;-77
2023/01/05 07:00:18;;;;;;;18.63;2.80;;;12.00;90.80;;;;;;5136710;28;20478;-77
2023/01/05 07:02:44;;;;;;;15.25;3.22;;;11.90;90.70;;;;;;5135659;28;20031;-77
2023/01/05 07:05:10;;;;;;;16.88;2.55;;;11.90;90.80;;;;;;5136505;28;20035;-77
2023/01/05 07:07:36;;;;;;;18.70;2.80;;;11.90;90.80;;;;;;5135451;28;20016;-77
2023/01/05 07:10:02;;;;;;;16.05;3.72;;;11.90;90.80;;;;;;5136452;28;20031;-77
2023/01/05 07:12:28;;;;;;;18.55;2.65;;;11.90;90.60;;;;;;5135403;28;20053;-77
2023/01/05 07:14:53;;;;;;;12.95;2.83;;;12.00;90.60;;;;;;5101442;28;20114;-77
2023/01/05 07:17:19;;;;;;;17.45;2.40;;;11.90;90.60;;;;;;5135449;28;20030;-77
2023/01/05 07:19:45;;;;;;;17.58;3.00;;;11.90;90.60;;;;;;5135245;28;20073;-77
2023/01/05 07:22:10;;;;;;;13.88;2.60;;;11.90;90.60;;;;;;5135162;28;20055;-77
2023/01/05 07:24:36;;;;;;;17.75;3.10;;;11.90;90.50;;;;;;5118153;28;20023;-77
2023/01/05 07:27:02;;;;;;;10.18;2.03;;;12.00;90.40;;;;;;5117800;28;20056;-77
2023/01/05 07:29:27;;;;;;;21.48;2.97;;;11.90;90.30;;;;;;5134386;28;20031;-77
2023/01/05 07:31:53;;;;;;;13.98;2.63;;;11.90;90.30;;;;;;5135058;28;20052;-77
2023/01/05 07:34:20;;;;;;;16.48;3.35;;;11.90;90.30;;;;;;5135026;28;20474;-77
2023/01/05 07:36:46;;;;;;;11.50;2.03;;;11.90;90.20;;;;;;5134977;28;20039;-77
2023/01/05 07:39:12;;;;;;;23.90;3.42;;;12.00;90.20;;;;;;5134950;28;20028;-77
2023/01/05 07:41:38;;;;;;;19.95;2.88;;;11.90;90.20;;;;;;5134815;28;20028;-77
2023/01/05 07:44:03;;;;;;;15.18;2.95;;;11.90;90.20;;;;;;5135810;28;20041;-77
2023/01/05 07:46:29;;;;;;;16.13;2.67;;;11.90;90.20;;;;;;5135746;28;20099;-77
2023/01/05 07:48:55;;;;;;;17.63;3.22;;;11.90;90.20;;;;;;5135652;28;20043;-77
2023/01/05 07:51:21;;;;;;;17.48;2.60;;;11.90;90.20;;;;;;5135594;28;20028;-77
2023/01/05 07:53:46;;;;;;;17.48;2.83;;;11.90;90.10;;;;;;5134778;28;20061;-76
2023/01/05 07:56:13;;;;;;;14.93;3.47;;;12.00;90.10;;;;;;5135515;28;20055;-77
2023/01/05 07:58:39;;;;;;;13.68;2.17;;;11.90;90.00;;;;;;5135525;28;20019;-77
2023/01/05 08:01:13;;;;;;;10.68;2.13;;;11.90;90.00;;;;;;5135384;28;20098;-77
2023/01/05 08:03:39;;;;;;;17.05;2.55;;;11.90;90.00;;;;;;5135470;28;20016;-77
2023/01/05 08:06:11;;;;;;;18.65;2.80;;;11.90;90.00;;;;;;5135346;28;20497;-77
2023/01/05 08:08:37;;;;;;;13.60;2.47;;;11.90;90.00;;;;;;5135351;27;20019;-77
2023/01/05 08:11:04;;;;;;;15.45;2.55;;;11.90;89.80;;;;;;5135401;28;20031;-77
2023/01/05 08:16:14;;;;;;;15.32;3.30;;;12.00;90.00;;;;;;5135270;28;20046;-77
2023/01/05 08:18:40;;;;;;;21.23;2.92;;;11.90;89.90;;;;;;5135088;28;20040;-77
2023/01/05 08:21:07;;;;;;;19.05;2.90;;;11.90;89.90;;;;;;5135006;28;20031;-77
2023/01/05 08:23:33;;;;;;;11.30;3.05;;;11.90;89.90;;;;;;5134252;28;20091;-77
2023/01/05 08:26:04;;;;;;;12.13;2.60;;;11.90;89.80;;;;;;5134983;28;20024;-77
2023/01/05 08:28:30;;;;;;;13.00;2.63;;;12.00;89.90;;;;;;5134692;28;20044;-77
2023/01/05 08:31:04;;;;;;;16.52;3.65;;;11.90;89.80;;;;;;5135016;28;20035;-77
2023/01/05 08:33:30;;;;;;;16.35;2.95;;;11.90;89.90;;;;;;5134825;28;20034;-77
2023/01/05 08:35:56;;;;;;;18.52;2.88;;;12.00;89.80;;;;;;5133655;28;20023;-76
2023/01/05 08:38:22;;;;;;;11.00;2.78;;;12.00;89.90;;;;;;5134718;28;20039;-77
2023/01/05 08:40:48;;;;;;;11.30;2.15;;;12.00;89.90;;;;;;5133617;28;20084;-76
2023/01/05 08:43:13;;;;;;;13.80;2.90;;;12.00;89.70;;;;;;5134784;28;20039;-77
2023/01/05 08:45:39;;;;;;;14.23;2.67;;;12.00;90.00;;;;;;5133680;28;20034;-76
2023/01/05 08:48:05;;;;;;;14.55;2.88;;;12.00;89.90;;;;;;5133608;28;20032;-77
2023/01/05 08:50:30;;;;;;;13.90;2.67;;;12.00;89.70;;;;;;5116598;28;20031;-77
2023/01/05 08:52:56;;;;;;;22.90;3.10;;;12.00;89.90;;;;;;5134490;28;20115;-77
2023/01/05 08:55:22;;;;;;;19.42;2.42;;;12.00;89.70;;;;;;5134491;28;20394;-77
2023/01/05 08:57:48;;;;;;;17.55;2.38;;;12.00;89.90;;;;;;5134432;28;20023;-76
2023/01/05 09:00:16;;;;;;;16.05;3.10;;;12.00;89.60;;;;;;5134286;28;20039;-77
2023/01/05 09:02:42;;;;;;;23.35;3.33;;;12.00;89.40;;;;;;5134334;28;20087;-77
2023/01/05 09:05:09;;;;;;;20.95;3.85;;;12.00;89.60;;;;;;5133348;28;20020;-77
2023/01/05 09:07:34;;;;;;;17.98;2.72;;;12.00;89.40;;;;;;5134149;28;20382;-77
2023/01/05 09:10:00;;;;;;;15.52;2.97;;;12.00;89.50;;;;;;5134168;28;20027;-77
2023/01/05 09:12:25;;;;;;;21.00;3.20;;;12.00;89.40;;;;;;5133185;28;20031;-77
2023/01/05 09:14:53;;;;;;;20.48;3.15;;;12.00;89.50;;;;;;5116144;28;20027;-77
2023/01/05 09:17:18;;;;;;;13.93;2.72;;;12.10;89.60;;;;;;5133126;28;20153;-76
2023/01/05 09:19:44;;;;;;;15.52;3.30;;;12.00;89.60;;;;;;5134102;28;20020;-77
2023/01/05 09:22:10;;;;;;;21.10;3.13;;;12.10;89.70;;;;;;5132935;28;20511;-77
2023/01/05 09:24:36;;;;;;;20.80;3.33;;;12.00;89.40;;;;;;5133082;28;20023;-77
2023/01/05 09:27:02;;;;;;;19.15;2.47;;;12.10;89.70;;;;;;5133858;28;20051;-76
2023/01/05 09:29:28;;;;;;;20.83;3.55;;;12.10;89.70;;;;;;5133151;28;20083;-77
2023/01/05 09:31:54;;;;;;;21.20;2.63;;;12.10;89.50;;;;;;5132921;28;20478;-77
2023/01/05 09:34:19;;;;;;;20.35;3.15;;;12.10;89.30;;;;;;5133958;28;20048;-77
2023/01/05 09:36:45;;;;;;;14.38;2.78;;;12.10;89.50;;;;;;5133906;28;20031;-77
2023/01/05 09:39:11;;;;;;;14.10;3.15;;;12.10;89.60;;;;;;5115851;28;20038;-77
2023/01/05 09:41:47;;;;;;;17.30;2.83;;;12.10;89.40;;;;;;5132878;28;20084;-77
2023/01/05 09:44:36;;;;;;;22.83;3.45;;;12.10;89.00;;;;;;5133999;28;20084;-77
2023/01/05 09:47:14;;;;;;;17.30;2.72;;;12.10;89.10;;;;;;5133810;28;20016;-78
2023/01/05 09:49:40;;;;;;;16.67;3.50;;;12.10;89.10;;;;;;5133776;28;20093;-78
2023/01/05 09:52:09;;;;;;;17.65;2.22;;;12.10;89.10;;;;;;5134710;28;20049;-78
2023/01/05 09:54:37;;;;;;;14.60;3.25;;;12.10;89.10;;;;;;5137932;28;20045;-77
2023/01/05 09:57:04;;;;;;;16.10;2.63;;;12.10;89.20;;;;;;5136849;28;20023;-78
2023/01/05 09:59:41;;;;;;;21.40;2.78;;;12.10;89.20;;;;;;5137848;27;20028;-78
2023/01/05 10:02:35;;;;;;;17.88;2.67;;;12.10;89.40;;;;;;5137778;28;20028;-78
2023/01/05 10:05:03;;;;;;;19.80;3.25;;;12.10;89.50;;;;;;5107888;27;20035;-78
2023/01/05 10:07:38;;;;;;;13.45;2.70;;;12.10;89.30;;;;;;5137703;28;20020;-78
2023/01/05 10:10:16;;;;;;;15.68;2.72;;;12.10;89.20;;;;;;5136601;28;20519;-78
2023/01/05 10:13:05;;;;;;;14.50;3.03;;;12.10;89.50;;;;;;5137599;28;20023;-78
2023/01/05 10:15:53;;;;;;;18.48;2.80;;;12.10;89.50;;;;;;5137585;27;20028;-78
2023/01/05 10:18:26;;;;;;;17.17;4.18;;;12.20;89.50;;;;;;5137353;28;20027;-77
2023/01/05 10:21:19;;;;;;;18.77;2.38;;;12.20;89.80;;;;;;5136534;28;20072;-77
2023/01/05 10:24:00;;;;;;;19.08;3.50;;;12.10;89.10;;;;;;5136392;28;20027;-77
2023/01/05 10:26:32;;;;;;;14.35;2.85;;;12.20;89.20;;;;;;5136567;28;20026;-77
2023/01/05 10:29:10;;;;;;;13.00;2.60;;;12.20;89.30;;;;;;5136093;28;20043;-77
2023/01/05 10:31:43;;;;;;;18.70;2.95;;;12.20;88.80;;;;;;5137263;28;20034;-76
2023/01/05 10:34:47;;;;;;;18.75;2.85;;;12.20;88.70;;;;;;5137210;28;20019;-77
2023/01/05 10:37:16;;;;;;;17.98;3.63;;;12.20;88.60;;;;;;5085039;28;20036;-77
2023/01/05 10:40:04;;;;;;;17.15;3.45;;;12.20;88.80;;;;;;5136032;28;20050;-77
2023/01/05 10:42:42;;;;;;;15.05;4.13;;;12.30;88.80;;;;;;5137000;28;20066;-77
2023/01/05 10:45:12;;;;;;;14.68;3.15;;;12.30;88.30;;;;;;5136967;28;20030;-77
2023/01/05 10:47:39;;;;;;;20.45;3.50;;;12.30;88.50;;;;;;5136939;28;20039;-77
2023/01/05 10:50:29;;;;;;;19.67;3.50;;;12.40;88.30;;;;;;5136878;28;20027;-77
2023/01/05 10:52:57;;;;;;;15.73;2.97;;;12.40;88.30;;;;;;5135860;28;20087;-77
2023/01/05 10:55:24;;;;;;;13.50;3.20;;;12.40;88.20;;;;;;5135852;28;20030;-77
2023/01/05 10:57:49;;;;;;;17.77;2.58;;;12.40;87.90;;;;;;5136761;28;20027;-77
2023/01/05 11:00:20;;;;;;;19.58;3.20;;;12.40;87.60;;;;;;5135576;28;20479;-77
2023/01/05 11:02:52;;;;;;;15.93;3.03;;;12.40;87.60;;;;;;5135785;28;20028;-76
2023/01/05 11:05:40;;;;;;;17.20;2.63;;;12.50;87.90;;;;;;5136528;28;20053;-77
2023/01/05 11:08:32;;;;;;;18.10;4.00;;;12.40;87.80;;;;;;5136325;27;20028;-76
2023/01/05 11:11:02;;;;;;;11.82;3.08;;;12.40;87.80;;;;;;5132847;28;20423;-77
2023/01/05 11:13:32;;;;;;;17.85;3.10;;;12.50;88.20;;;;;;5136434;28;20031;-77
2023/01/05 11:16:09;;;;;;;17.23;3.20;;;12.50;88.20;;;;;;5136549;28;20031;-77
2023/01/05 11:18:52;;;;;;;12.13;2.90;;;12.50;87.70;;;;;;5136354;28;20080;-77
2023/01/05 11:21:20;;;;;;;;;;;12.50;87.90;;;;;;5136687;28;20047;-77
2023/01/05 11:23:48;;;;;;;15.00;3.42;;;12.50;87.90;;;;;;5136201;28;19963;-77
2023/01/05 11:26:17;;;;;;;14.77;3.45;;;12.40;87.60;;;;;;5136175;28;20020;-77
2023/01/05 11:29:01;;;;;;;18.55;3.08;;;12.50;88.00;;;;;;5135950;28;20512;-77
2023/01/05 11:31:33;;;;;;;17.23;3.17;;;12.50;88.20;;;;;;5136152;28;20024;-77
2023/01/05 11:34:07;;;;;;;16.98;3.67;;;12.50;87.80;;;;;;5136123;28;20031;-77
2023/01/05 11:36:33;;;;;;;21.42;3.35;;;12.60;87.80;;;;;;5134991;28;20027;-78
2023/01/05 11:38:59;;;;;;;19.55;2.95;;;12.60;87.50;;;;;;5135020;28;20094;-78
2023/01/05 11:41:25;;;;;;;19.23;3.85;;;12.50;87.50;;;;;;5134867;28;20036;-77
2023/01/05 11:43:53;;;;;;;18.27;3.50;;;12.50;87.60;;;;;;5135833;28;20062;-77
2023/01/05 11:46:20;;;;;;;15.23;3.25;;;12.50;87.50;;;;;;5134829;28;20044;-77
2023/01/05 11:48:54;;;;;;;15.68;3.58;;;12.50;87.30;;;;;;5134690;28;20024;-77
2023/01/05 11:51:39;;;;;;;16.80;2.65;;;12.50;87.40;;;;;;5135701;28;20107;-77
2023/01/05 11:54:34;;;;;;;14.55;2.67;;;12.50;87.20;;;;;;5134624;28;20053;-78
2023/01/05 11:57:16;;;;;;;19.30;3.28;;;12.50;87.00;;;;;;5135605;28;20020;-77
2023/01/05 11:59:44;;;;;;;24.65;3.65;;;12.50;87.50;;;;;;5135661;28;20111;-77
2023/01/05 12:02:38;;;;;;;13.40;3.08;;;12.60;87.60;;;;;;5135421;28;20015;-77
2023/01/05 12:05:29;;;;;;;18.40;3.63;;;12.50;86.80;;;;;;5135585;28;20075;-77
2023/01/05 12:08:00;;;;;;;15.80;2.72;;;12.60;87.40;;;;;;5135333;28;20027;-77
2023/01/05 12:10:55;;;;;;;18.30;3.25;;;12.70;87.40;;;;;;5135496;28;20016;-77
2023/01/05 12:13:34;;;;;;;17.52;3.63;;;12.70;87.40;;;;;;5134244;28;20020;-77
2023/01/05 12:16:11;;;;;;;19.02;3.33;;;12.80;87.00;;;;;;5133953;28;20053;-77
2023/01/05 12:19:12;;;;;;;16.42;2.67;;;12.80;86.30;;;;;;5135183;28;20042;-77
2023/01/05 12:21:44;;;;;;;19.63;3.22;;;12.80;86.30;;;;;;5080488;28;20040;-77
2023/01/05 12:24:24;;;;;;;16.90;3.08;;;12.80;86.50;;;;;;5135255;28;20055;-77
2023/01/05 12:27:14;;;;;;;13.27;2.25;;;12.80;86.00;;;;;;5134987;28;20024;-77
2023/01/05 12:29:49;;;;;;;13.98;2.53;;;12.80;86.10;;;;;;5135096;28;20046;-77
2023/01/05 12:32:21;;;;;;;14.48;3.55;;;12.90;85.80;;;;;;5133871;28;20110;-77
2023/01/05 12:35:23;;;;;;;14.83;2.93;;;13.00;85.50;;;;;;5133821;28;20027;-77
2023/01/05 12:38:10;;;;;;;16.30;2.53;;;13.20;84.50;;;;;;5134941;28;20094;-77
2023/01/05 12:40:54;;;;;;;18.45;3.03;;;13.20;84.10;;;;;;5134699;28;20039;-77
2023/01/05 12:43:41;;;;;;;18.20;3.10;;;13.40;83.90;;;;;;5134871;28;20024;-77
2023/01/05 12:46:13;;;;;;;14.93;3.10;;;13.40;83.10;;;;;;5133693;28;20027;-77
2023/01/05 12:48:48;;;;;;;15.55;3.35;;;13.30;82.80;;;;;;5134652;28;20016;-77
2023/01/05 12:51:27;;;;;;;14.15;3.30;;;13.20;82.90;;;;;;5133588;28;20083;-77
2023/01/05 12:54:09;;;;;;;16.00;2.95;;;13.10;82.90;;;;;;5134536;28;20030;-77
2023/01/05 12:56:46;;;;;;;17.92;3.45;;;13.00;83.00;;;;;;5134517;28;20087;-77
2023/01/05 12:59:32;;;;;;;15.45;3.10;;;12.90;83.60;;;;;;5134574;28;20034;-77
2023/01/05 13:02:00;;;;;;;17.13;3.55;;;12.90;83.90;;;;;;5134332;28;20027;-76
2023/01/05 13:04:46;;;;;;;13.02;2.72;;;12.90;83.90;;;;;;5133274;28;20045;-77
2023/01/05 13:07:28;;;;;;;16.85;2.95;;;12.90;84.30;;;;;;5134421;28;20344;-77
2023/01/05 13:10:00;;;;;;;16.40;3.38;;;12.90;84.10;;;;;;5134190;28;20041;-77
2023/01/05 13:12:26;;;;;;;23.33;3.45;;;13.00;84.90;;;;;;5134295;28;20039;-77
2023/01/05 13:15:05;;;;;;;16.77;3.60;;;13.10;85.00;;;;;;5134099;28;20035;-77
2023/01/05 13:17:37;;;;;;;14.48;3.75;;;13.10;84.40;;;;;;5133045;28;20102;-77
2023/01/05 13:20:20;;;;;;;14.00;3.10;;;13.00;84.40;;;;;;5134109;28;20045;-77
2023/01/05 13:22:48;;;;;;;16.10;3.10;;;13.00;84.80;;;;;;5134233;28;20023;-77
2023/01/05 13:25:18;;;;;;;16.00;2.95;;;13.00;84.30;;;;;;5134050;28;20020;-77
2023/01/05 13:27:44;;;;;;;17.42;3.85;;;12.90;84.70;;;;;;5133147;28;20057;-77
2023/01/05 13:30:32;;;;;;;19.42;3.47;;;12.90;84.50;;;;;;5133858;28;20027;-77